sensor_id;sensor_type;location;lat;lon;timestamp;pressure;altitude;pressure_sealevel;temperature;humidity
54389;BME280;40975;50.390;8.640;2022-12-07T00:01:38;99154.00;;;2.12;100.00
54389;BME280;40975;50.390;8.640;2022-12-07T00:04:06;99151.31;;;2.13;100.00
54389;BME280;40975;50.390;8.640;2022-12-07T00:06:37;99152.03;;;2.15;100.00
54389;BME280;40975;50.390;8.640;2022-12-07T00:09:04;99143.34;;;2.15;100.00
54389;BME280;40975;50.390;8.640;2022-12-07T00:11:30;99145.03;;;2.16;100.00
54389;BME280;40975;50.390;8.640;2022-12-07T00:13:58;99141.56;;;2.15;100.00
54389;BME280;40975;50.390;8.640;2022-12-07T00:16:26;99138.78;;;2.18;100.00
54389;BME280;40975;50.390;8.640;2022-12-07T00:18:52;99138.66;;;2.20;100.00
54389;BME280;40975;50.390;8.640;2022-12-07T00:21:23;99133.34;;;2.22;100.00
54389;BME280;40975;50.390;8.640;2022-12-07T00:23:51;99123.81;;;2.21;100.00
54389;BME280;40975;50.390;8.640;2022-12-07T00:26:18;99128.28;;;2.18;100.00
54389;BME280;40975;50.390;8.640;2022-12-07T00:28:49;99126.44;;;2.21;100.00
54389;BME280;40975;50.390;8.640;2022-12-07T00:31:16;99126.81;;;2.14;100.00
54389;BME280;40975;50.390;8.640;2022-12-07T00:33:42;99119.69;;;2.16;100.00
54389;BME280;40975;50.390;8.640;2022-12-07T00:36:14;99116.22;;;2.16;100.00
54389;BME280;40975;50.390;8.640;2022-12-07T00:38:41;99111.81;;;2.16;100.00
54389;BME280;40975;50.390;8.640;2022-12-07T00:41:10;99116.22;;;2.16;100.00
54389;BME280;40975;50.390;8.640;2022-12-07T00:43:36;99110.91;;;2.17;100.00
54389;BME280;40975;50.390;8.640;2022-12-07T00:46:01;99108.19;;;2.19;100.00
54389;BME280;40975;50.390;8.640;2022-12-07T00:48:27;99106.41;;;2.20;100.00
54389;BME280;40975;50.390;8.640;2022-12-07T00:50:52;99101.81;;;2.23;100.00
54389;BME280;40975;50.390;8.640;2022-12-07T00:53:19;99097.53;;;2.22;100.00
54389;BME280;40975;50.390;8.640;2022-12-07T00:55:45;99098.28;;;2.24;100.00
54389;BME280;40975;50.390;8.640;2022-12-07T00:58:10;99084.06;;;2.28;100.00
54389;BME280;40975;50.390;8.640;2022-12-07T01:00:37;99091.81;;;2.30;100.00
54389;BME280;40975;50.390;8.640;2022-12-07T01:03:04;99091.06;;;2.28;100.00
54389;BME280;40975;50.390;8.640;2022-12-07T01:05:29;99105.84;;;2.29;100.00
54389;BME280;40975;50.390;8.640;2022-12-07T01:07:54;99096.88;;;2.33;100.00
54389;BME280;40975;50.390;8.640;2022-12-07T01:10:20;99096.03;;;2.32;100.00
54389;BME280;40975;50.390;8.640;2022-12-07T01:12:45;99088.91;;;2.35;100.00
54389;BME280;40975;50.390;8.640;2022-12-07T01:15:10;99085.66;;;2.31;100.00
54389;BME280;40975;50.390;8.640;2022-12-07T01:17:36;99095.72;;;2.37;100.00
54389;BME280;40975;50.390;8.640;2022-12-07T01:20:02;99089.66;;;2.37;100.00
54389;BME280;40975;50.390;8.640;2022-12-07T01:22:28;99089.91;;;2.46;100.00
54389;BME280;40975;50.390;8.640;2022-12-07T01:24:53;99095.44;;;2.42;100.00
54389;BME280;40975;50.390;8.640;2022-12-07T01:27:18;99090.13;;;2.43;100.00
54389;BME280;40975;50.390;8.640;2022-12-07T01:29:44;99094.50;;;2.43;100.00
54389;BME280;40975;50.390;8.640;2022-12-07T01:32:09;99089.56;;;2.38;100.00
54389;BME280;40975;50.390;8.640;2022-12-07T01:34:35;99086.59;;;2.44;100.00
54389;BME280;40975;50.390;8.640;2022-12-07T01:37:00;99084.97;;;2.42;100.00
54389;BME280;40975;50.390;8.640;2022-12-07T01:39:25;99084.03;;;2.43;100.00
54389;BME280;40975;50.390;8.640;2022-12-07T01:41:52;99082.47;;;2.40;100.00
54389;BME280;40975;50.390;8.640;2022-12-07T01:46:51;99067.69;;;2.25;100.00
54389;BME280;40975;50.390;8.640;2022-12-07T01:49:38;99081.91;;;2.21;100.00
54389;BME280;40975;50.390;8.640;2022-12-07T01:52:20;99093.16;;;2.23;100.00
54389;BME280;40975;50.390;8.640;2022-12-07T01:54:49;99091.63;;;2.18;100.00
54389;BME280;40975;50.390;8.640;2022-12-07T01:57:16;99089.56;;;2.09;100.00
54389;BME280;40975;50.390;8.640;2022-12-07T01:59:43;99086.22;;;2.07;100.00
54389;BME280;40975;50.390;8.640;2022-12-07T02:02:53;99083.59;;;1.93;100.00
54389;BME280;40975;50.390;8.640;2022-12-07T02:05:19;99079.28;;;1.92;100.00
54389;BME280;40975;50.390;8.640;2022-12-07T02:07:47;99071.44;;;1.92;100.00
54389;BME280;40975;50.390;8.640;2022-12-07T02:10:19;99072.19;;;1.94;100.00
54389;BME280;40975;50.390;8.640;2022-12-07T02:12:47;99062.06;;;1.88;100.00
54389;BME280;40975;50.390;8.640;2022-12-07T02:15:13;99066.66;;;1.84;100.00
54389;BME280;40975;50.390;8.640;2022-12-07T02:18:04;99063.50;;;1.79;100.00
54389;BME280;40975;50.390;8.640;2022-12-07T02:20:51;99062.09;;;1.73;100.00
54389;BME280;40975;50.390;8.640;2022-12-07T02:26:02;99053.97;;;1.78;100.00
54389;BME280;40975;50.390;8.640;2022-12-07T02:28:37;99051.25;;;1.79;100.00
54389;BME280;40975;50.390;8.640;2022-12-07T02:31:18;99060.03;;;1.93;100.00
54389;BME280;40975;50.390;8.640;2022-12-07T02:33:50;99048.91;;;1.89;100.00
54389;BME280;40975;50.390;8.640;2022-12-07T02:36:29;99046.38;;;1.88;100.00
54389;BME280;40975;50.390;8.640;2022-12-07T02:39:19;99053.59;;;1.98;100.00
54389;BME280;40975;50.390;8.640;2022-12-07T02:41:51;99048.81;;;2.05;100.00
54389;BME280;40975;50.390;8.640;2022-12-07T02:44:20;99052.75;;;2.12;100.00
54389;BME280;40975;50.390;8.640;2022-12-07T02:46:52;99047.69;;;2.09;100.00
54389;BME280;40975;50.390;8.640;2022-12-07T02:49:22;99052.47;;;2.17;100.00
54389;BME280;40975;50.390;8.640;2022-12-07T02:51:48;99043.09;;;2.27;100.00
54389;BME280;40975;50.390;8.640;2022-12-07T02:54:16;99037.88;;;2.27;100.00
54389;BME280;40975;50.390;8.640;2022-12-07T03:12:32;99043.75;;;2.16;100.00
54389;BME280;40975;50.390;8.640;2022-12-07T03:15:07;99043.75;;;2.16;100.00
54389;BME280;40975;50.390;8.640;2022-12-07T03:17:37;99041.97;;;2.17;100.00
54389;BME280;40975;50.390;8.640;2022-12-07T03:20:06;99045.34;;;2.19;100.00
54389;BME280;40975;50.390;8.640;2022-12-07T03:22:34;99051.03;;;2.26;100.00
54389;BME280;40975;50.390;8.640;2022-12-07T03:25:05;99045.31;;;2.33;100.00
54389;BME280;40975;50.390;8.640;2022-12-07T03:28:00;99047.53;;;2.40;100.00
54389;BME280;40975;50.390;8.640;2022-12-07T03:30:52;99041.94;;;2.31;100.00
54389;BME280;40975;50.390;8.640;2022-12-07T03:33:20;99038.03;;;2.39;100.00
54389;BME280;40975;50.390;8.640;2022-12-07T03:36:11;99038.22;;;2.36;100.00
54389;BME280;40975;50.390;8.640;2022-12-07T03:39:14;99040.94;;;2.34;100.00
54389;BME280;40975;50.390;8.640;2022-12-07T03:41:42;99035.84;;;2.45;100.00
54389;BME280;40975;50.390;8.640;2022-12-07T03:44:08;99030.53;;;2.32;100.00
54389;BME280;40975;50.390;8.640;2022-12-07T03:46:49;99037.00;;;2.41;100.00
54389;BME280;40975;50.390;8.640;2022-12-07T03:49:22;99039.16;;;2.35;100.00
54389;BME280;40975;50.390;8.640;2022-12-07T03:51:54;99039.25;;;2.33;100.00
54389;BME280;40975;50.390;8.640;2022-12-07T03:54:23;99040.53;;;2.40;100.00
54389;BME280;40975;50.390;8.640;2022-12-07T03:56:50;99044.38;;;2.35;100.00
54389;BME280;40975;50.390;8.640;2022-12-07T03:59:17;99026.69;;;2.38;100.00
54389;BME280;40975;50.390;8.640;2022-12-07T04:01:44;99027.00;;;2.33;100.00
54389;BME280;40975;50.390;8.640;2022-12-07T04:04:10;99033.09;;;2.34;100.00
54389;BME280;40975;50.390;8.640;2022-12-07T04:06:35;99026.41;;;2.43;100.00
54389;BME280;40975;50.390;8.640;2022-12-07T04:09:01;99026.69;;;2.53;100.00
54389;BME280;40975;50.390;8.640;2022-12-07T04:11:26;99024.78;;;2.55;100.00
54389;BME280;40975;50.390;8.640;2022-12-07T04:13:51;99026.31;;;2.44;100.00
54389;BME280;40975;50.390;8.640;2022-12-07T04:16:35;99026.13;;;2.47;100.00
54389;BME280;40975;50.390;8.640;2022-12-07T04:19:00;99022.66;;;2.47;100.00
54389;BME280;40975;50.390;8.640;2022-12-07T04:21:26;99018.47;;;2.44;100.00
54389;BME280;40975;50.390;8.640;2022-12-07T04:23:52;99018.19;;;2.49;100.00
54389;BME280;40975;50.390;8.640;2022-12-07T04:26:17;99016.69;;;2.45;100.00
54389;BME280;40975;50.390;8.640;2022-12-07T04:28:43;99013.56;;;2.53;100.00
54389;BME280;40975;50.390;8.640;2022-12-07T04:31:09;99011.53;;;2.43;100.00
54389;BME280;40975;50.390;8.640;2022-12-07T04:33:35;99017.22;;;2.50;100.00
54389;BME280;40975;50.390;8.640;2022-12-07T04:36:00;99020.94;;;2.60;100.00
54389;BME280;40975;50.390;8.640;2022-12-07T04:38:26;99024.59;;;2.58;100.00
54389;BME280;40975;50.390;8.640;2022-12-07T04:40:51;99018.72;;;2.54;100.00
54389;BME280;40975;50.390;8.640;2022-12-07T04:43:16;99013.22;;;2.44;100.00
54389;BME280;40975;50.390;8.640;2022-12-07T04:45:46;99015.00;;;2.44;100.00
54389;BME280;40975;50.390;8.640;2022-12-07T04:48:12;99011.44;;;2.45;100.00
54389;BME280;40975;50.390;8.640;2022-12-07T04:50:37;99016.91;;;2.55;100.00
54389;BME280;40975;50.390;8.640;2022-12-07T04:53:03;99013.00;;;2.62;100.00
54389;BME280;40975;50.390;8.640;2022-12-07T04:55:28;99013.00;;;2.62;100.00
54389;BME280;40975;50.390;8.640;2022-12-07T04:57:54;99016.66;;;2.59;100.00
54389;BME280;40975;50.390;8.640;2022-12-07T05:00:19;99010.09;;;2.52;100.00
54389;BME280;40975;50.390;8.640;2022-12-07T05:02:44;99006.53;;;2.53;100.00
54389;BME280;40975;50.390;8.640;2022-12-07T05:05:10;99003.34;;;2.62;100.00
54389;BME280;40975;50.390;8.640;2022-12-07T05:07:35;99005.59;;;2.54;100.00
54389;BME280;40975;50.390;8.640;2022-12-07T05:10:00;99008.03;;;2.57;100.00
54389;BME280;40975;50.390;8.640;2022-12-07T05:12:26;99004.19;;;2.63;100.00
54389;BME280;40975;50.390;8.640;2022-12-07T05:14:51;99002.41;;;2.63;100.00
54389;BME280;40975;50.390;8.640;2022-12-07T05:17:16;99010.25;;;2.63;100.00
54389;BME280;40975;50.390;8.640;2022-12-07T05:19:42;99008.69;;;2.61;100.00
54389;BME280;40975;50.390;8.640;2022-12-07T05:22:07;99000.63;;;2.64;100.00
54389;BME280;40975;50.390;8.640;2022-12-07T05:24:32;99012.25;;;2.60;100.00
54389;BME280;40975;50.390;8.640;2022-12-07T05:26:57;99008.78;;;2.59;100.00
54389;BME280;40975;50.390;8.640;2022-12-07T05:29:23;99011.41;;;2.59;100.00
54389;BME280;40975;50.390;8.640;2022-12-07T05:31:48;99014.03;;;2.59;100.00
54389;BME280;40975;50.390;8.640;2022-12-07T05:34:14;99020.09;;;2.60;100.00
54389;BME280;40975;50.390;8.640;2022-12-07T05:36:39;99022.16;;;2.55;100.00
54389;BME280;40975;50.390;8.640;2022-12-07T05:39:05;99016.19;;;2.53;100.00
54389;BME280;40975;50.390;8.640;2022-12-07T05:41:30;99024.78;;;2.55;100.00
54389;BME280;40975;50.390;8.640;2022-12-07T05:44:14;99015.78;;;2.59;100.00
54389;BME280;40975;50.390;8.640;2022-12-07T05:46:40;99017.13;;;2.52;100.00
54389;BME280;40975;50.390;8.640;2022-12-07T05:49:05;99010.78;;;2.41;100.00
54389;BME280;40975;50.390;8.640;2022-12-07T05:51:30;99007.13;;;2.44;100.00
54389;BME280;40975;50.390;8.640;2022-12-07T05:53:56;99005.75;;;2.38;100.00
54389;BME280;40975;50.390;8.640;2022-12-07T05:56:21;99001.09;;;2.29;100.00
54389;BME280;40975;50.390;8.640;2022-12-07T05:58:46;99010.16;;;2.23;100.00
54389;BME280;40975;50.390;8.640;2022-12-07T06:01:30;99010.56;;;2.17;100.00
54389;BME280;40975;50.390;8.640;2022-12-07T06:03:55;99014.22;;;2.14;100.00
54389;BME280;40975;50.390;8.640;2022-12-07T06:06:21;99006.84;;;2.07;100.00
54389;BME280;40975;50.390;8.640;2022-12-07T06:08:46;99009.28;;;1.95;100.00
54389;BME280;40975;50.390;8.640;2022-12-07T06:11:11;99018.06;;;1.94;100.00
54389;BME280;40975;50.390;8.640;2022-12-07T06:13:55;99015.34;;;2.10;100.00
54389;BME280;40975;50.390;8.640;2022-12-07T06:16:21;99025.44;;;2.02;100.00
54389;BME280;40975;50.390;8.640;2022-12-07T06:18:46;99022.34;;;2.10;100.00
54389;BME280;40975;50.390;8.640;2022-12-07T06:21:11;99025.81;;;2.10;100.00
54389;BME280;40975;50.390;8.640;2022-12-07T06:23:37;99027.22;;;2.16;100.00
54389;BME280;40975;50.390;8.640;2022-12-07T06:26:02;99031.97;;;2.24;100.00
54389;BME280;40975;50.390;8.640;2022-12-07T06:28:27;99036.25;;;2.25;100.00
54389;BME280;40975;50.390;8.640;2022-12-07T06:31:01;99038.69;;;2.28;100.00
54389;BME280;40975;50.390;8.640;2022-12-07T06:33:27;99037.34;;;2.35;100.00
54389;BME280;40975;50.390;8.640;2022-12-07T06:35:53;99039.69;;;2.40;100.00
54389;BME280;40975;50.390;8.640;2022-12-07T06:38:18;99036.59;;;2.47;100.00
54389;BME280;40975;50.390;8.640;2022-12-07T06:40:43;99036.41;;;2.51;100.00
54389;BME280;40975;50.390;8.640;2022-12-07T06:43:09;99039.56;;;2.56;100.00
54389;BME280;40975;50.390;8.640;2022-12-07T06:45:34;99041.25;;;2.57;100.00
54389;BME280;40975;50.390;8.640;2022-12-07T06:48:00;99038.03;;;2.66;100.00
54389;BME280;40975;50.390;8.640;2022-12-07T06:50:25;99037.84;;;2.69;100.00
54389;BME280;40975;50.390;8.640;2022-12-07T06:52:51;99034.69;;;2.64;100.00
54389;BME280;40975;50.390;8.640;2022-12-07T06:55:17;99038.91;;;2.67;100.00
54389;BME280;40975;50.390;8.640;2022-12-07T06:57:42;99038.78;;;2.68;100.00
54389;BME280;40975;50.390;8.640;2022-12-07T07:00:08;99034.09;;;2.73;100.00
54389;BME280;40975;50.390;8.640;2022-12-07T07:02:33;99038.50;;;2.73;100.00
54389;BME280;40975;50.390;8.640;2022-12-07T07:04:59;99028.75;;;2.75;100.00
54389;BME280;40975;50.390;8.640;2022-12-07T07:07:24;99025.84;;;2.79;100.00
54389;BME280;40975;50.390;8.640;2022-12-07T07:09:49;99032.50;;;2.71;100.00
54389;BME280;40975;50.390;8.640;2022-12-07T07:12:15;99043.72;;;2.73;100.00
54389;BME280;40975;50.390;8.640;2022-12-07T07:14:40;99036.28;;;2.67;100.00
54389;BME280;40975;50.390;8.640;2022-12-07T07:17:05;99019.94;;;2.48;100.00
54389;BME280;40975;50.390;8.640;2022-12-07T07:19:31;99048.09;;;2.59;100.00
54389;BME280;40975;50.390;8.640;2022-12-07T07:21:56;99044.09;;;2.54;100.00
54389;BME280;40975;50.390;8.640;2022-12-07T07:24:21;99056.50;;;2.50;100.00
54389;BME280;40975;50.390;8.640;2022-12-07T07:26:47;99041.66;;;2.51;100.00
54389;BME280;40975;50.390;8.640;2022-12-07T07:29:12;99050.44;;;2.49;100.00
54389;BME280;40975;50.390;8.640;2022-12-07T07:31:37;99048.13;;;2.45;100.00
54389;BME280;40975;50.390;8.640;2022-12-07T07:34:03;99050.28;;;2.38;100.00
54389;BME280;40975;50.390;8.640;2022-12-07T07:36:28;99047.84;;;2.35;100.00
54389;BME280;40975;50.390;8.640;2022-12-07T07:38:53;99055.25;;;2.28;100.00
54389;BME280;40975;50.390;8.640;2022-12-07T07:41:18;99050.09;;;2.27;100.00
54389;BME280;40975;50.390;8.640;2022-12-07T07:43:44;99050.50;;;2.21;100.00
54389;BME280;40975;50.390;8.640;2022-12-07T07:46:09;99046.38;;;2.16;100.00
54389;BME280;40975;50.390;8.640;2022-12-07T07:48:35;99052.34;;;2.18;100.00
54389;BME280;40975;50.390;8.640;2022-12-07T07:51:05;99052.63;;;2.28;100.00
54389;BME280;40975;50.390;8.640;2022-12-07T07:53:30;99049.28;;;2.26;100.00
54389;BME280;40975;50.390;8.640;2022-12-07T07:55:55;99052.44;;;2.31;100.00
54389;BME280;40975;50.390;8.640;2022-12-07T07:58:21;99053.06;;;2.35;100.00
54389;BME280;40975;50.390;8.640;2022-12-07T08:00:46;99048.69;;;2.36;100.00
54389;BME280;40975;50.390;8.640;2022-12-07T08:03:12;99052.06;;;2.38;100.00
54389;BME280;40975;50.390;8.640;2022-12-07T08:05:37;99052.88;;;2.38;100.00
54389;BME280;40975;50.390;8.640;2022-12-07T08:08:03;99053.63;;;2.40;100.00
54389;BME280;40975;50.390;8.640;2022-12-07T08:10:29;99054.69;;;2.38;100.00
54389;BME280;40975;50.390;8.640;2022-12-07T08:12:54;99049.44;;;2.38;100.00
54389;BME280;40975;50.390;8.640;2022-12-07T08:15:39;99056.09;;;2.43;100.00
54389;BME280;40975;50.390;8.640;2022-12-07T08:18:05;99049.75;;;2.60;100.00
54389;BME280;40975;50.390;8.640;2022-12-07T08:20:31;99053.03;;;2.64;100.00
54389;BME280;40975;50.390;8.640;2022-12-07T08:22:57;99058.00;;;2.69;100.00
54389;BME280;40975;50.390;8.640;2022-12-07T08:25:23;99062.81;;;2.75;100.00
54389;BME280;40975;50.390;8.640;2022-12-07T08:27:49;99056.25;;;2.82;100.00
54389;BME280;40975;50.390;8.640;2022-12-07T08:30:15;99061.16;;;3.01;100.00
54389;BME280;40975;50.390;8.640;2022-12-07T08:32:41;99063.38;;;3.20;100.00
54389;BME280;40975;50.390;8.640;2022-12-07T08:35:07;99060.38;;;3.26;100.00
54389;BME280;40975;50.390;8.640;2022-12-07T08:37:33;99062.16;;;3.26;100.00
54389;BME280;40975;50.390;8.640;2022-12-07T08:39:58;99059.63;;;3.24;100.00
54389;BME280;40975;50.390;8.640;2022-12-07T08:42:23;99061.44;;;3.37;100.00
54389;BME280;40975;50.390;8.640;2022-12-07T08:44:53;99059.03;;;3.34;100.00
54389;BME280;40975;50.390;8.640;2022-12-07T08:47:18;99062.78;;;3.30;100.00
54389;BME280;40975;50.390;8.640;2022-12-07T08:49:46;99069.44;;;3.48;100.00
54389;BME280;40975;50.390;8.640;2022-12-07T08:52:12;99071.22;;;3.48;100.00
54389;BME280;40975;50.390;8.640;2022-12-07T08:54:39;99073.22;;;3.57;100.00
54389;BME280;40975;50.390;8.640;2022-12-07T08:57:06;99068.72;;;3.59;100.00
54389;BME280;40975;50.390;8.640;2022-12-07T08:59:34;99064.53;;;3.82;100.00
54389;BME280;40975;50.390;8.640;2022-12-07T09:01:59;99069.03;;;4.56;100.00
54389;BME280;40975;50.390;8.640;2022-12-07T09:04:25;99067.28;;;5.76;100.00
54389;BME280;40975;50.390;8.640;2022-12-07T09:06:50;99057.72;;;6.66;100.00
54389;BME280;40975;50.390;8.640;2022-12-07T09:09:16;99066.78;;;7.71;100.00
54389;BME280;40975;50.390;8.640;2022-12-07T09:11:41;99075.59;;;8.94;95.65
54389;BME280;40975;50.390;8.640;2022-12-07T09:14:06;99067.97;;;10.73;84.63
54389;BME280;40975;50.390;8.640;2022-12-07T09:16:32;99068.53;;;11.67;77.93
54389;BME280;40975;50.390;8.640;2022-12-07T09:18:57;99075.84;;;12.52;72.56
54389;BME280;40975;50.390;8.640;2022-12-07T09:21:22;99069.63;;;14.75;63.61
54389;BME280;40975;50.390;8.640;2022-12-07T09:23:47;99064.72;;;15.57;58.38
54389;BME280;40975;50.390;8.640;2022-12-07T09:26:13;99076.16;;;14.72;58.96
54389;BME280;40975;50.390;8.640;2022-12-07T09:28:38;99080.53;;;14.01;60.62
54389;BME280;40975;50.390;8.640;2022-12-07T09:31:04;99082.94;;;15.15;57.80
54389;BME280;40975;50.390;8.640;2022-12-07T09:33:30;99084.25;;;15.42;55.58
54389;BME280;40975;50.390;8.640;2022-12-07T09:35:55;99078.13;;;15.72;55.60
54389;BME280;40975;50.390;8.640;2022-12-07T09:38:21;99083.25;;;15.81;53.52
54389;BME280;40975;50.390;8.640;2022-12-07T09:40:47;99081.88;;;15.85;54.15
54389;BME280;40975;50.390;8.640;2022-12-07T09:43:18;99077.56;;;15.61;51.98
54389;BME280;40975;50.390;8.640;2022-12-07T09:45:46;99080.84;;;14.62;55.17
54389;BME280;40975;50.390;8.640;2022-12-07T09:48:18;99088.19;;;15.69;54.98
54389;BME280;40975;50.390;8.640;2022-12-07T09:50:45;99095.19;;;12.63;60.47
54389;BME280;40975;50.390;8.640;2022-12-07T09:53:43;99097.50;;;9.65;75.35
54389;BME280;40975;50.390;8.640;2022-12-07T09:56:17;99089.13;;;8.19;83.82
54389;BME280;40975;50.390;8.640;2022-12-07T09:58:43;99082.97;;;7.24;91.58
54389;BME280;40975;50.390;8.640;2022-12-07T10:01:13;99084.91;;;6.78;92.31
54389;BME280;40975;50.390;8.640;2022-12-07T10:03:40;99080.38;;;6.46;94.42
54389;BME280;40975;50.390;8.640;2022-12-07T10:06:10;99077.41;;;6.05;98.71
54389;BME280;40975;50.390;8.640;2022-12-07T10:08:37;99061.69;;;8.42;91.81
54389;BME280;40975;50.390;8.640;2022-12-07T10:11:02;99053.28;;;11.33;73.40
54389;BME280;40975;50.390;8.640;2022-12-07T10:13:43;99054.19;;;13.15;65.13
54389;BME280;40975;50.390;8.640;2022-12-07T10:16:35;99051.91;;;13.70;61.01
54389;BME280;40975;50.390;8.640;2022-12-07T10:19:23;99053.88;;;14.40;58.65
54389;BME280;40975;50.390;8.640;2022-12-07T10:24:28;99050.94;;;12.70;63.49
54389;BME280;40975;50.390;8.640;2022-12-07T10:26:53;99046.28;;;12.64;66.20
54389;BME280;40975;50.390;8.640;2022-12-07T10:29:31;99052.59;;;13.47;62.31
54389;BME280;40975;50.390;8.640;2022-12-07T10:34:45;99049.13;;;14.19;59.39
54389;BME280;40975;50.390;8.640;2022-12-07T10:37:17;99054.38;;;13.79;58.96
54389;BME280;40975;50.390;8.640;2022-12-07T10:39:54;99051.69;;;13.88;59.51
54389;BME280;40975;50.390;8.640;2022-12-07T10:42:21;99051.91;;;14.34;59.71
54389;BME280;40975;50.390;8.640;2022-12-07T10:45:09;99042.69;;;12.04;63.36
54389;BME280;40975;50.390;8.640;2022-12-07T10:47:48;99039.03;;;12.39;64.69
54389;BME280;40975;50.390;8.640;2022-12-07T10:50:45;99030.94;;;11.88;64.65
54389;BME280;40975;50.390;8.640;2022-12-07T10:53:46;99034.59;;;11.61;67.14
54389;BME280;40975;50.390;8.640;2022-12-07T10:59:16;99031.47;;;11.65;69.14
54389;BME280;40975;50.390;8.640;2022-12-07T11:08:03;99030.34;;;9.46;79.95
54389;BME280;40975;50.390;8.640;2022-12-07T11:10:42;99017.94;;;8.37;83.39
54389;BME280;40975;50.390;8.640;2022-12-07T11:16:23;99008.56;;;8.54;89.04
54389;BME280;40975;50.390;8.640;2022-12-07T11:19:20;99008.75;;;8.92;88.26
54389;BME280;40975;50.390;8.640;2022-12-07T11:21:48;99006.66;;;9.06;86.29
54389;BME280;40975;50.390;8.640;2022-12-07T11:24:17;99007.59;;;8.55;87.68
54389;BME280;40975;50.390;8.640;2022-12-07T11:26:53;98995.47;;;8.12;86.29
54389;BME280;40975;50.390;8.640;2022-12-07T11:32:15;98988.97;;;8.26;90.20
54389;BME280;40975;50.390;8.640;2022-12-07T11:40:33;98977.38;;;8.07;91.07
54389;BME280;40975;50.390;8.640;2022-12-07T11:46:02;98980.41;;;8.03;89.77
54389;BME280;40975;50.390;8.640;2022-12-07T11:48:33;98978.44;;;7.64;91.72
54389;BME280;40975;50.390;8.640;2022-12-07T11:51:01;98982.72;;;7.13;95.04
54389;BME280;40975;50.390;8.640;2022-12-07T11:53:39;98970.91;;;6.75;97.61
54389;BME280;40975;50.390;8.640;2022-12-07T11:56:15;98971.41;;;6.68;100.00
54389;BME280;40975;50.390;8.640;2022-12-07T12:04:07;98980.50;;;6.09;100.00
54389;BME280;40975;50.390;8.640;2022-12-07T12:06:43;98980.28;;;6.01;100.00
54389;BME280;40975;50.390;8.640;2022-12-07T12:09:17;98979.28;;;5.79;100.00
54389;BME280;40975;50.390;8.640;2022-12-07T12:12:17;98983.47;;;5.70;100.00
54389;BME280;40975;50.390;8.640;2022-12-07T12:20:04;98969.44;;;5.36;100.00
54389;BME280;40975;50.390;8.640;2022-12-07T12:22:38;98969.78;;;5.31;100.00
54389;BME280;40975;50.390;8.640;2022-12-07T12:25:19;98971.31;;;5.11;100.00
54389;BME280;40975;50.390;8.640;2022-12-07T12:27:47;98976.66;;;5.09;100.00
54389;BME280;40975;50.390;8.640;2022-12-07T12:30:35;98970.66;;;4.96;100.00
54389;BME280;40975;50.390;8.640;2022-12-07T12:33:06;98970.53;;;4.97;100.00
54389;BME280;40975;50.390;8.640;2022-12-07T12:35:38;98964.28;;;5.23;100.00
54389;BME280;40975;50.390;8.640;2022-12-07T12:38:32;98964.94;;;5.72;100.00
54389;BME280;40975;50.390;8.640;2022-12-07T12:41:01;98962.28;;;6.17;100.00
54389;BME280;40975;50.390;8.640;2022-12-07T12:43:59;98952.44;;;6.31;100.00
54389;BME280;40975;50.390;8.640;2022-12-07T12:51:44;98964.44;;;5.67;100.00
54389;BME280;40975;50.390;8.640;2022-12-07T12:59:30;98964.94;;;5.02;100.00
54389;BME280;40975;50.390;8.640;2022-12-07T13:04:56;98941.72;;;4.60;100.00
54389;BME280;40975;50.390;8.640;2022-12-07T13:12:57;98952.91;;;4.27;100.00
54389;BME280;40975;50.390;8.640;2022-12-07T13:15:47;98951.63;;;4.19;100.00
54389;BME280;40975;50.390;8.640;2022-12-07T13:26:15;98946.66;;;4.03;100.00
54389;BME280;40975;50.390;8.640;2022-12-07T13:31:16;98941.63;;;4.00;100.00
54389;BME280;40975;50.390;8.640;2022-12-07T13:33:44;98936.59;;;3.97;100.00
54389;BME280;40975;50.390;8.640;2022-12-07T13:36:20;98933.88;;;3.86;100.00
54389;BME280;40975;50.390;8.640;2022-12-07T13:38:52;98926.31;;;3.81;100.00
54389;BME280;40975;50.390;8.640;2022-12-07T13:41:19;98933.59;;;3.78;100.00
54389;BME280;40975;50.390;8.640;2022-12-07T13:44:05;98940.06;;;3.85;100.00
54389;BME280;40975;50.390;8.640;2022-12-07T13:46:41;98929.34;;;3.88;100.00
54389;BME280;40975;50.390;8.640;2022-12-07T13:49:24;98929.03;;;3.93;100.00
54389;BME280;40975;50.390;8.640;2022-12-07T13:51:50;98924.63;;;3.93;100.00
54389;BME280;40975;50.390;8.640;2022-12-07T13:54:16;98916.97;;;3.90;100.00
54389;BME280;40975;50.390;8.640;2022-12-07T13:56:42;98929.25;;;3.89;100.00
54389;BME280;40975;50.390;8.640;2022-12-07T13:59:13;98928.25;;;3.79;100.00
54389;BME280;40975;50.390;8.640;2022-12-07T14:01:39;98926.56;;;3.78;100.00
54389;BME280;40975;50.390;8.640;2022-12-07T14:06:54;98928.78;;;3.71;100.00
54389;BME280;40975;50.390;8.640;2022-12-07T14:09:22;98929.59;;;3.72;100.00
54389;BME280;40975;50.390;8.640;2022-12-07T14:11:50;98932.22;;;3.72;100.00
54389;BME280;40975;50.390;8.640;2022-12-07T14:14:21;98931.38;;;3.84;100.00
54389;BME280;40975;50.390;8.640;2022-12-07T14:16:59;98922.34;;;3.76;100.00
54389;BME280;40975;50.390;8.640;2022-12-07T14:19:51;98925.75;;;3.52;100.00
54389;BME280;40975;50.390;8.640;2022-12-07T14:22:38;98935.41;;;3.38;100.00
54389;BME280;40975;50.390;8.640;2022-12-07T14:27:38;98922.19;;;3.27;100.00
54389;BME280;40975;50.390;8.640;2022-12-07T14:30:04;98913.81;;;3.22;100.00
54389;BME280;40975;50.390;8.640;2022-12-07T14:32:30;98919.13;;;3.20;100.00
54389;BME280;40975;50.390;8.640;2022-12-07T14:35:18;98914.94;;;3.18;100.00
54389;BME280;40975;50.390;8.640;2022-12-07T14:37:44;98913.06;;;3.20;100.00
54389;BME280;40975;50.390;8.640;2022-12-07T14:40:19;98913.19;;;3.18;100.00
54389;BME280;40975;50.390;8.640;2022-12-07T14:42:45;98902.78;;;3.17;100.00
54389;BME280;40975;50.390;8.640;2022-12-07T14:45:17;98901.00;;;3.17;100.00
54389;BME280;40975;50.390;8.640;2022-12-07T14:47:43;98900.38;;;3.14;100.00
54389;BME280;40975;50.390;8.640;2022-12-07T14:50:12;98893.97;;;3.18;100.00